sensor_id;sensor_type;location;lat;lon;timestamp;pressure;altitude;pressure_sealevel;temperature;humidity
7170;BME280;3626;42.656;23.312;2023-04-09T00:00:07;94761.47;;;5.16;100.00
7170;BME280;3626;42.656;23.312;2023-04-09T00:00:14;94763.06;;;5.17;100.00
7170;BME280;3626;42.656;23.312;2023-04-09T00:00:21;94766.56;;;5.16;100.00
7170;BME280;3626;42.656;23.312;2023-04-09T00:00:27;94762.25;;;5.17;100.00
7170;BME280;3626;42.656;23.312;2023-04-09T00:00:32;94764.81;;;5.17;100.00
7170;BME280;3626;42.656;23.312;2023-04-09T00:00:38;94762.25;;;5.17;100.00
7170;BME280;3626;42.656;23.312;2023-04-09T00:00:44;94767.38;;;5.17;100.00
7170;BME280;3626;42.656;23.312;2023-04-09T00:01:00;94767.38;;;5.17;100.00
7170;BME280;3626;42.656;23.312;2023-04-09T00:01:07;94761.31;;;5.18;100.00
7170;BME280;3626;42.656;23.312;2023-04-09T00:01:14;94763.88;;;5.18;100.00
7170;BME280;3626;42.656;23.312;2023-04-09T00:01:20;94765.53;;;5.19;100.00
7170;BME280;3626;42.656;23.312;2023-04-09T00:01:26;94764.81;;;5.17;100.00
7170;BME280;3626;42.656;23.312;2023-04-09T00:01:31;94766.72;;;5.15;100.00
7170;BME280;3626;42.656;23.312;2023-04-09T00:01:37;94761.59;;;5.15;100.00
7170;BME280;3626;42.656;23.312;2023-04-09T00:01:43;94763.47;;;5.13;100.00
7170;BME280;3626;42.656;23.312;2023-04-09T00:01:49;94766.16;;;5.11;100.00
7170;BME280;3626;42.656;23.312;2023-04-09T00:01:55;94768.72;;;5.11;100.00
7170;BME280;3626;42.656;23.312;2023-04-09T00:02:00;94766.28;;;5.10;100.00
7170;BME280;3626;42.656;23.312;2023-04-09T00:02:08;94769.78;;;5.09;100.00
7170;BME280;3626;42.656;23.312;2023-04-09T00:02:14;94762.91;;;5.09;100.00
7170;BME280;3626;42.656;23.312;2023-04-09T00:02:20;94767.22;;;5.09;100.00
7170;BME280;3626;42.656;23.312;2023-04-09T00:02:26;94766.41;;;5.08;100.00
7170;BME280;3626;42.656;23.312;2023-04-09T00:02:33;94773.13;;;5.09;100.00
7170;BME280;3626;42.656;23.312;2023-04-09T00:02:40;94764.66;;;5.09;100.00
7170;BME280;3626;42.656;23.312;2023-04-09T00:02:46;94766.28;;;5.10;100.00
7170;BME280;3626;42.656;23.312;2023-04-09T00:02:52;94766.28;;;5.10;100.00
7170;BME280;3626;42.656;23.312;2023-04-09T00:02:58;94766.28;;;5.10;100.00
7170;BME280;3626;42.656;23.312;2023-04-09T00:03:05;94769.66;;;5.10;100.00
7170;BME280;3626;42.656;23.312;2023-04-09T00:03:11;94769.66;;;5.10;100.00
7170;BME280;3626;42.656;23.312;2023-04-09T00:03:17;94764.66;;;5.09;100.00
7170;BME280;3626;42.656;23.312;2023-04-09T00:03:23;94767.09;;;5.10;100.00
7170;BME280;3626;42.656;23.312;2023-04-09T00:03:28;94780.69;;;5.11;100.00
7170;BME280;3626;42.656;23.312;2023-04-09T00:03:35;94767.91;;;5.11;100.00
7170;BME280;3626;42.656;23.312;2023-04-09T00:03:41;94768.72;;;5.11;100.00
7170;BME280;3626;42.656;23.312;2023-04-09T00:03:47;94769.53;;;5.12;100.00
7170;BME280;3626;42.656;23.312;2023-04-09T00:03:53;94766.97;;;5.12;100.00
7170;BME280;3626;42.656;23.312;2023-04-09T00:03:59;94769.53;;;5.12;100.00
7170;BME280;3626;42.656;23.312;2023-04-09T00:04:05;94769.53;;;5.12;100.00
7170;BME280;3626;42.656;23.312;2023-04-09T00:04:11;94766.16;;;5.11;100.00
7170;BME280;3626;42.656;23.312;2023-04-09T00:04:17;94768.72;;;5.11;100.00
7170;BME280;3626;42.656;23.312;2023-04-09T00:04:22;94769.53;;;5.12;100.00
7170;BME280;3626;42.656;23.312;2023-04-09T00:04:28;94770.34;;;5.12;100.00
7170;BME280;3626;42.656;23.312;2023-04-09T00:04:34;94771.13;;;5.13;100.00
7170;BME280;3626;42.656;23.312;2023-04-09T00:04:40;94771.94;;;5.13;100.00
7170;BME280;3626;42.656;23.312;2023-04-09T00:04:46;94766.03;;;5.13;100.00
7170;BME280;3626;42.656;23.312;2023-04-09T00:04:51;94763.47;;;5.13;100.00
7170;BME280;3626;42.656;23.312;2023-04-09T00:04:57;94763.34;;;5.14;100.00
7170;BME280;3626;42.656;23.312;2023-04-09T00:05:06;94771.13;;;5.13;100.00
7170;BME280;3626;42.656;23.312;2023-04-09T00:05:12;94771.13;;;5.13;100.00
7170;BME280;3626;42.656;23.312;2023-04-09T00:05:19;94771.13;;;5.13;100.00
7170;BME280;3626;42.656;23.312;2023-04-09T00:05:25;94771.13;;;5.13;100.00
7170;BME280;3626;42.656;23.312;2023-04-09T00:05:31;94766.97;;;5.12;100.00
7170;BME280;3626;42.656;23.312;2023-04-09T00:05:38;94765.22;;;5.12;100.00
7170;BME280;3626;42.656;23.312;2023-04-09T00:05:44;94772.88;;;5.12;100.00
7170;BME280;3626;42.656;23.312;2023-04-09T00:05:50;94769.38;;;5.13;100.00
7170;BME280;3626;42.656;23.312;2023-04-09T00:05:56;94771.13;;;5.13;100.00
7170;BME280;3626;42.656;23.312;2023-04-09T00:06:02;94764.28;;;5.13;100.00
7170;BME280;3626;42.656;23.312;2023-04-09T00:06:10;94771.13;;;5.13;100.00
7170;BME280;3626;42.656;23.312;2023-04-09T00:06:16;94776.16;;;5.14;100.00
7170;BME280;3626;42.656;23.312;2023-04-09T00:06:22;94765.06;;;5.14;100.00
7170;BME280;3626;42.656;23.312;2023-04-09T00:06:28;94765.91;;;5.14;100.00
7170;BME280;3626;42.656;23.312;2023-04-09T00:06:33;94770.19;;;5.14;100.00
7170;BME280;3626;42.656;23.312;2023-04-09T00:06:39;94767.63;;;5.14;100.00
7170;BME280;3626;42.656;23.312;2023-04-09T00:06:45;94770.19;;;5.14;100.00
7170;BME280;3626;42.656;23.312;2023-04-09T00:06:51;94774.50;;;5.13;100.00
7170;BME280;3626;42.656;23.312;2023-04-09T00:06:57;94765.22;;;5.12;100.00
7170;BME280;3626;42.656;23.312;2023-04-09T00:07:03;94773.84;;;5.11;100.00
7170;BME280;3626;42.656;23.312;2023-04-09T00:07:09;94763.72;;;5.10;100.00
7170;BME280;3626;42.656;23.312;2023-04-09T00:07:15;94767.91;;;5.11;100.00
7170;BME280;3626;42.656;23.312;2023-04-09T00:07:21;94764.56;;;5.10;100.00
7170;BME280;3626;42.656;23.312;2023-04-09T00:07:27;94773.84;;;5.11;100.00
7170;BME280;3626;42.656;23.312;2023-04-09T00:07:32;94772.22;;;5.10;100.00
7170;BME280;3626;42.656;23.312;2023-04-09T00:07:38;94773.03;;;5.11;100.00
7170;BME280;3626;42.656;23.312;2023-04-09T00:07:44;94773.84;;;5.11;100.00
7170;BME280;3626;42.656;23.312;2023-04-09T00:07:50;94763.72;;;5.10;100.00
7170;BME280;3626;42.656;23.312;2023-04-09T00:07:56;94774.78;;;5.10;100.00
7170;BME280;3626;42.656;23.312;2023-04-09T00:08:01;94771.38;;;5.10;100.00
7170;BME280;3626;42.656;23.312;2023-04-09T00:08:07;94768.84;;;5.10;100.00
7170;BME280;3626;42.656;23.312;2023-04-09T00:08:13;94767.22;;;5.09;100.00
7170;BME280;3626;42.656;23.312;2023-04-09T00:08:19;94773.94;;;5.10;100.00
7170;BME280;3626;42.656;23.312;2023-04-09T00:08:28;94772.22;;;5.10;100.00
7170;BME280;3626;42.656;23.312;2023-04-09T00:08:34;94764.56;;;5.10;100.00
7170;BME280;3626;42.656;23.312;2023-04-09T00:08:40;94772.22;;;5.10;100.00
7170;BME280;3626;42.656;23.312;2023-04-09T00:08:45;94772.22;;;5.10;100.00
7170;BME280;3626;42.656;23.312;2023-04-09T00:08:51;94770.59;;;5.09;100.00
7170;BME280;3626;42.656;23.312;2023-04-09T00:08:57;94770.59;;;5.09;100.00
7170;BME280;3626;42.656;23.312;2023-04-09T00:09:03;94770.59;;;5.09;100.00
7170;BME280;3626;42.656;23.312;2023-04-09T00:09:08;94772.34;;;5.09;100.00
7170;BME280;3626;42.656;23.312;2023-04-09T00:09:15;94765.47;;;5.09;100.00
7170;BME280;3626;42.656;23.312;2023-04-09T00:09:21;94769.66;;;5.10;100.00
7170;BME280;3626;42.656;23.312;2023-04-09T00:09:28;94768.03;;;5.09;100.00
7170;BME280;3626;42.656;23.312;2023-04-09T00:09:34;94772.34;;;5.09;100.00
7170;BME280;3626;42.656;23.312;2023-04-09T00:09:40;94770.59;;;5.09;100.00
7170;BME280;3626;42.656;23.312;2023-04-09T00:09:47;94767.09;;;5.10;100.00
7170;BME280;3626;42.656;23.312;2023-04-09T00:09:52;94767.22;;;5.09;100.00
7170;BME280;3626;42.656;23.312;2023-04-09T00:09:58;94768.84;;;5.10;100.00
7170;BME280;3626;42.656;23.312;2023-04-09T00:10:05;94768.84;;;5.10;100.00
7170;BME280;3626;42.656;23.312;2023-04-09T00:10:11;94771.38;;;5.10;100.00
7170;BME280;3626;42.656;23.312;2023-04-09T00:10:16;94765.47;;;5.09;100.00
7170;BME280;3626;42.656;23.312;2023-04-09T00:10:22;94770.47;;;5.11;100.00
7170;BME280;3626;42.656;23.312;2023-04-09T00:10:28;94772.22;;;5.10;100.00
7170;BME280;3626;42.656;23.312;2023-04-09T00:10:34;94773.03;;;5.11;100.00
7170;BME280;3626;42.656;23.312;2023-04-09T00:10:40;94772.09;;;5.12;100.00
7170;BME280;3626;42.656;23.312;2023-04-09T00:10:46;94772.88;;;5.12;100.00
7170;BME280;3626;42.656;23.312;2023-04-09T00:10:52;94769.53;;;5.12;100.00
7170;BME280;3626;42.656;23.312;2023-04-09T00:10:58;94772.09;;;5.12;100.00
7170;BME280;3626;42.656;23.312;2023-04-09T00:11:05;94772.09;;;5.12;100.00
7170;BME280;3626;42.656;23.312;2023-04-09T00:11:11;94767.91;;;5.11;100.00
7170;BME280;3626;42.656;23.312;2023-04-09T00:11:17;94768.72;;;5.11;100.00
7170;BME280;3626;42.656;23.312;2023-04-09T00:11:23;94771.28;;;5.11;100.00
7170;BME280;3626;42.656;23.312;2023-04-09T00:11:28;94769.53;;;5.12;100.00
7170;BME280;3626;42.656;23.312;2023-04-09T00:11:34;94766.97;;;5.12;100.00
7170;BME280;3626;42.656;23.312;2023-04-09T00:11:42;94773.84;;;5.11;100.00
7170;BME280;3626;42.656;23.312;2023-04-09T00:11:48;94772.09;;;5.12;100.00
7170;BME280;3626;42.656;23.312;2023-04-09T00:11:54;94771.94;;;5.13;100.00
7170;BME280;3626;42.656;23.312;2023-04-09T00:12:01;94770.19;;;5.14;100.00
7170;BME280;3626;42.656;23.312;2023-04-09T00:12:07;94770.34;;;5.12;100.00
7170;BME280;3626;42.656;23.312;2023-04-09T00:12:13;94774.50;;;5.13;100.00
7170;BME280;3626;42.656;23.312;2023-04-09T00:12:19;94769.38;;;5.13;100.00
7170;BME280;3626;42.656;23.312;2023-04-09T00:12:25;94775.31;;;5.14;100.00
7170;BME280;3626;42.656;23.312;2023-04-09T00:12:30;94771.03;;;5.14;100.00
7170;BME280;3626;42.656;23.312;2023-04-09T00:12:37;94774.41;;;5.15;100.00
7170;BME280;3626;42.656;23.312;2023-04-09T00:12:43;94771.03;;;5.14;100.00
7170;BME280;3626;42.656;23.312;2023-04-09T00:12:49;94769.38;;;5.13;100.00
7170;BME280;3626;42.656;23.312;2023-04-09T00:12:55;94769.28;;;5.15;100.00
7170;BME280;3626;42.656;23.312;2023-04-09T00:13:00;94773.59;;;5.14;100.00
7170;BME280;3626;42.656;23.312;2023-04-09T00:13:06;94770.19;;;5.14;100.00
7170;BME280;3626;42.656;23.312;2023-04-09T00:13:12;94771.13;;;5.13;100.00
7170;BME280;3626;42.656;23.312;2023-04-09T00:13:18;94771.94;;;5.13;100.00
7170;BME280;3626;42.656;23.312;2023-04-09T00:13:25;94770.19;;;5.14;100.00
7170;BME280;3626;42.656;23.312;2023-04-09T00:13:31;94772.75;;;5.14;100.00
7170;BME280;3626;42.656;23.312;2023-04-09T00:13:36;94774.50;;;5.13;100.00
7170;BME280;3626;42.656;23.312;2023-04-09T00:13:42;94769.28;;;5.15;100.00
7170;BME280;3626;42.656;23.312;2023-04-09T00:13:48;94768.47;;;5.14;100.00
7170;BME280;3626;42.656;23.312;2023-04-09T00:13:54;94775.31;;;5.14;100.00
7170;BME280;3626;42.656;23.312;2023-04-09T00:13:59;94774.41;;;5.15;100.00
7170;BME280;3626;42.656;23.312;2023-04-09T00:14:08;94771.84;;;5.15;100.00
7170;BME280;3626;42.656;23.312;2023-04-09T00:14:13;94769.28;;;5.15;100.00
7170;BME280;3626;42.656;23.312;2023-04-09T00:14:19;94774.41;;;5.15;100.00
7170;BME280;3626;42.656;23.312;2023-04-09T00:14:25;94768.47;;;5.14;100.00
7170;BME280;3626;42.656;23.312;2023-04-09T00:14:31;94769.28;;;5.15;100.00
7170;BME280;3626;42.656;23.312;2023-04-09T00:14:37;94772.63;;;5.15;100.00
7170;BME280;3626;42.656;23.312;2023-04-09T00:14:42;94771.03;;;5.14;100.00
7170;BME280;3626;42.656;23.312;2023-04-09T00:14:48;94774.41;;;5.15;100.00
7170;BME280;3626;42.656;23.312;2023-04-09T00:14:55;94770.09;;;5.15;100.00
7170;BME280;3626;42.656;23.312;2023-04-09T00:15:00;94774.41;;;5.15;100.00
7170;BME280;3626;42.656;23.312;2023-04-09T00:15:07;94770.19;;;5.14;100.00
7170;BME280;3626;42.656;23.312;2023-04-09T00:15:13;94772.75;;;5.14;100.00
7170;BME280;3626;42.656;23.312;2023-04-09T00:15:19;94774.41;;;5.15;100.00
7170;BME280;3626;42.656;23.312;2023-04-09T00:15:25;94771.03;;;5.14;100.00
7170;BME280;3626;42.656;23.312;2023-04-09T00:15:31;94772.75;;;5.14;100.00
7170;BME280;3626;42.656;23.312;2023-04-09T00:15:37;94777.88;;;5.14;100.00
7170;BME280;3626;42.656;23.312;2023-04-09T00:15:43;94776.16;;;5.14;100.00
7170;BME280;3626;42.656;23.312;2023-04-09T00:15:49;94771.94;;;5.13;100.00
7170;BME280;3626;42.656;23.312;2023-04-09T00:15:55;94772.75;;;5.14;100.00
7170;BME280;3626;42.656;23.312;2023-04-09T00:16:01;94776.16;;;5.14;100.00
7170;BME280;3626;42.656;23.312;2023-04-09T00:16:07;94770.19;;;5.14;100.00
7170;BME280;3626;42.656;23.312;2023-04-09T00:16:12;94772.75;;;5.14;100.00
7170;BME280;3626;42.656;23.312;2023-04-09T00:16:18;94767.63;;;5.14;100.00
7170;BME280;3626;42.656;23.312;2023-04-09T00:16:24;94772.75;;;5.14;100.00
7170;BME280;3626;42.656;23.312;2023-04-09T00:16:30;94770.19;;;5.14;100.00
7170;BME280;3626;42.656;23.312;2023-04-09T00:16:36;94766.81;;;5.13;100.00
7170;BME280;3626;42.656;23.312;2023-04-09T00:16:41;94767.63;;;5.14;100.00
7170;BME280;3626;42.656;23.312;2023-04-09T00:16:48;94771.13;;;5.13;100.00
7170;BME280;3626;42.656;23.312;2023-04-09T00:16:54;94770.34;;;5.12;100.00
7170;BME280;3626;42.656;23.312;2023-04-09T00:17:00;94770.47;;;5.11;100.00
7170;BME280;3626;42.656;23.312;2023-04-09T00:17:06;94772.22;;;5.10;100.00
7170;BME280;3626;42.656;23.312;2023-04-09T00:17:12;94767.22;;;5.09;100.00
7170;BME280;3626;42.656;23.312;2023-04-09T00:17:17;94771.38;;;5.10;100.00
7170;BME280;3626;42.656;23.312;2023-04-09T00:17:23;94769.91;;;5.07;100.00
7170;BME280;3626;42.656;23.312;2023-04-09T00:17:29;94772.47;;;5.07;100.00
7170;BME280;3626;42.656;23.312;2023-04-09T00:17:35;94770.72;;;5.08;100.00
7170;BME280;3626;42.656;23.312;2023-04-09T00:17:41;94774.09;;;5.08;100.00
7170;BME280;3626;42.656;23.312;2023-04-09T00:17:46;94775.84;;;5.08;100.00
7170;BME280;3626;42.656;23.312;2023-04-09T00:17:52;94771.66;;;5.07;100.00
7170;BME280;3626;42.656;23.312;2023-04-09T00:17:58;94777.59;;;5.07;100.00
7170;BME280;3626;42.656;23.312;2023-04-09T00:18:05;94779.19;;;5.08;100.00
7170;BME280;3626;42.656;23.312;2023-04-09T00:18:11;94776.78;;;5.07;100.00
7170;BME280;3626;42.656;23.312;2023-04-09T00:18:17;94770.72;;;5.08;100.00
7170;BME280;3626;42.656;23.312;2023-04-09T00:18:23;94781.91;;;5.07;100.00
7170;BME280;3626;42.656;23.312;2023-04-09T00:18:28;94766.56;;;5.07;100.00
7170;BME280;3626;42.656;23.312;2023-04-09T00:18:34;94775.16;;;5.06;100.00
7170;BME280;3626;42.656;23.312;2023-04-09T00:18:40;94776.78;;;5.07;100.00
7170;BME280;3626;42.656;23.312;2023-04-09T00:18:46;94769.09;;;5.07;100.00
7170;BME280;3626;42.656;23.312;2023-04-09T00:18:52;94764.94;;;5.06;100.00
7170;BME280;3626;42.656;23.312;2023-04-09T00:18:58;94766.66;;;5.05;100.00
7170;BME280;3626;42.656;23.312;2023-04-09T00:19:03;94775.16;;;5.06;100.00
7170;BME280;3626;42.656;23.312;2023-04-09T00:19:10;94775.16;;;5.06;100.00
7170;BME280;3626;42.656;23.312;2023-04-09T00:19:16;94769.09;;;5.07;100.00
7170;BME280;3626;42.656;23.312;2023-04-09T00:19:21;94768.31;;;5.06;100.00
7170;BME280;3626;42.656;23.312;2023-04-09T00:19:27;94776.78;;;5.07;100.00
7170;BME280;3626;42.656;23.312;2023-04-09T00:19:34;94769.91;;;5.07;100.00
7170;BME280;3626;42.656;23.312;2023-04-09T00:19:40;94772.47;;;5.07;100.00
7170;BME280;3626;42.656;23.312;2023-04-09T00:19:46;94768.97;;;5.08;100.00
7170;BME280;3626;42.656;23.312;2023-04-09T00:19:51;94767.34;;;5.07;100.00
7170;BME280;3626;42.656;23.312;2023-04-09T00:19:57;94775.84;;;5.08;100.00
7170;BME280;3626;42.656;23.312;2023-04-09T00:20:04;94772.34;;;5.09;100.00
7170;BME280;3626;42.656;23.312;2023-04-09T00:20:10;94773.13;;;5.09;100.00
7170;BME280;3626;42.656;23.312;2023-04-09T00:20:16;94780.00;;;5.09;100.00
7170;BME280;3626;42.656;23.312;2023-04-09T00:20:22;94782.56;;;5.09;100.00
7170;BME280;3626;42.656;23.312;2023-04-09T00:20:28;94769.78;;;5.09;100.00
7170;BME280;3626;42.656;23.312;2023-04-09T00:20:34;94775.69;;;5.09;100.00
7170;BME280;3626;42.656;23.312;2023-04-09T00:20:40;94777.44;;;5.09;100.00
7170;BME280;3626;42.656;23.312;2023-04-09T00:20:45;94780.00;;;5.09;100.00
7170;BME280;3626;42.656;23.312;2023-04-09T00:20:52;94772.34;;;5.09;100.00
7170;BME280;3626;42.656;23.312;2023-04-09T00:21:00;94770.59;;;5.09;100.00
7170;BME280;3626;42.656;23.312;2023-04-09T00:21:06;94769.78;;;5.09;100.00
7170;BME280;3626;42.656;23.312;2023-04-09T00:21:13;94771.53;;;5.08;100.00
7170;BME280;3626;42.656;23.312;2023-04-09T00:21:20;94780.00;;;5.09;100.00
7170;BME280;3626;42.656;23.312;2023-04-09T00:21:26;94768.31;;;5.06;100.00
7170;BME280;3626;42.656;23.312;2023-04-09T00:21:32;94774.34;;;5.05;100.00
7170;BME280;3626;42.656;23.312;2023-04-09T00:21:38;94775.28;;;5.04;100.00
7170;BME280;3626;42.656;23.312;2023-04-09T00:21:43;94769.50;;;5.02;100.00
7170;BME280;3626;42.656;23.312;2023-04-09T00:21:49;94771.34;;;5.00;100.00
7170;BME280;3626;42.656;23.312;2023-04-09T00:21:55;94774.06;;;4.98;100.00
7170;BME280;3626;42.656;23.312;2023-04-09T00:22:01;94775.91;;;4.96;100.00
7170;BME280;3626;42.656;23.312;2023-04-09T00:22:07;94776.72;;;4.97;100.00
7170;BME280;3626;42.656;23.312;2023-04-09T00:22:12;94769.19;;;4.95;100.00
7170;BME280;3626;42.656;23.312;2023-04-09T00:22:19;94774.31;;;4.95;100.00
7170;BME280;3626;42.656;23.312;2023-04-09T00:22:25;94775.25;;;4.94;100.00
7170;BME280;3626;42.656;23.312;2023-04-09T00:22:31;94769.44;;;4.92;100.00
7170;BME280;3626;42.656;23.312;2023-04-09T00:22:37;94772.00;;;4.92;100.00
7170;BME280;3626;42.656;23.312;2023-04-09T00:22:43;94772.94;;;4.91;100.00
7170;BME280;3626;42.656;23.312;2023-04-09T00:22:49;94772.13;;;4.91;100.00
7170;BME280;3626;42.656;23.312;2023-04-09T00:22:56;94776.44;;;4.90;100.00
7170;BME280;3626;42.656;23.312;2023-04-09T00:23:02;94775.50;;;4.91;100.00
7170;BME280;3626;42.656;23.312;2023-04-09T00:23:08;94769.56;;;4.91;100.00
7170;BME280;3626;42.656;23.312;2023-04-09T00:23:14;94771.31;;;4.90;100.00
7170;BME280;3626;42.656;23.312;2023-04-09T00:23:20;94767.81;;;4.91;100.00
7170;BME280;3626;42.656;23.312;2023-04-09T00:23:26;94773.75;;;4.92;100.00
7170;BME280;3626;42.656;23.312;2023-04-09T00:23:31;94772.00;;;4.92;100.00
7170;BME280;3626;42.656;23.312;2023-04-09T00:23:37;94772.00;;;4.92;100.00
7170;BME280;3626;42.656;23.312;2023-04-09T00:23:43;94771.19;;;4.92;100.00
7170;BME280;3626;42.656;23.312;2023-04-09T00:23:49;94769.44;;;4.92;100.00
7170;BME280;3626;42.656;23.312;2023-04-09T00:23:55;94773.63;;;4.93;100.00
7170;BME280;3626;42.656;23.312;2023-04-09T00:24:01;94765.97;;;4.93;100.00
7170;BME280;3626;42.656;23.312;2023-04-09T00:24:07;94774.44;;;4.94;100.00
7170;BME280;3626;42.656;23.312;2023-04-09T00:24:13;94770.94;;;4.95;100.00
7170;BME280;3626;42.656;23.312;2023-04-09T00:24:19;94768.38;;;4.95;100.00
7170;BME280;3626;42.656;23.312;2023-04-09T00:24:24;94764.22;;;4.94;100.00
7170;BME280;3626;42.656;23.312;2023-04-09T00:24:30;94773.63;;;4.93;100.00
7170;BME280;3626;42.656;23.312;2023-04-09T00:24:36;94773.50;;;4.95;100.00
7170;BME280;3626;42.656;23.312;2023-04-09T00:24:42;94769.31;;;4.94;100.00
7170;BME280;3626;42.656;23.312;2023-04-09T00:24:47;94769.19;;;4.95;100.00
7170;BME280;3626;42.656;23.312;2023-04-09T00:24:53;94772.56;;;4.96;100.00
7170;BME280;3626;42.656;23.312;2023-04-09T00:24:59;94768.25;;;4.96;100.00
7170;BME280;3626;42.656;23.312;2023-04-09T00:25:06;94773.25;;;4.98;100.00
7170;BME280;3626;42.656;23.312;2023-04-09T00:25:12;94769.03;;;4.97;100.00
7170;BME280;3626;42.656;23.312;2023-04-09T00:25:19;94769.88;;;4.97;100.00
7170;BME280;3626;42.656;23.312;2023-04-09T00:25:25;94770.69;;;4.98;100.00
7170;BME280;3626;42.656;23.312;2023-04-09T00:25:31;94773.25;;;4.98;100.00
7170;BME280;3626;42.656;23.312;2023-04-09T00:25:37;94774.06;;;4.98;100.00
7170;BME280;3626;42.656;23.312;2023-04-09T00:25:42;94775.09;;;4.96;100.00
7170;BME280;3626;42.656;23.312;2023-04-09T00:25:48;94771.59;;;4.97;100.00
7170;BME280;3626;42.656;23.312;2023-04-09T00:25:54;94768.25;;;4.96;100.00
7170;BME280;3626;42.656;23.312;2023-04-09T00:26:00;94775.09;;;4.96;100.00
7170;BME280;3626;42.656;23.312;2023-04-09T00:26:06;94771.59;;;4.97;100.00
7170;BME280;3626;42.656;23.312;2023-04-09T00:26:11;94769.88;;;4.97;100.00
7170;BME280;3626;42.656;23.312;2023-04-09T00:26:17;94773.34;;;4.96;100.00
7170;BME280;3626;42.656;23.312;2023-04-09T00:26:23;94771.59;;;4.97;100.00
7170;BME280;3626;42.656;23.312;2023-04-09T00:26:30;94771.59;;;4.97;100.00
7170;BME280;3626;42.656;23.312;2023-04-09T00:26:35;94769.19;;;4.95;100.00
7170;BME280;3626;42.656;23.312;2023-04-09T00:26:41;94770.00;;;4.96;100.00
7170;BME280;3626;42.656;23.312;2023-04-09T00:26:48;94769.19;;;4.95;100.00
7170;BME280;3626;42.656;23.312;2023-04-09T00:26:54;94774.31;;;4.95;100.00
7170;BME280;3626;42.656;23.312;2023-04-09T00:27:00;94775.91;;;4.96;100.00
7170;BME280;3626;42.656;23.312;2023-04-09T00:27:05;94773.50;;;4.95;100.00
7170;BME280;3626;42.656;23.312;2023-04-09T00:27:11;94771.88;;;4.94;100.00
7170;BME280;3626;42.656;23.312;2023-04-09T00:27:17;94767.56;;;4.94;100.00
7170;BME280;3626;42.656;23.312;2023-04-09T00:27:23;94774.31;;;4.95;100.00
7170;BME280;3626;42.656;23.312;2023-04-09T00:27:29;94771.75;;;4.95;100.00
7170;BME280;3626;42.656;23.312;2023-04-09T00:27:34;94772.69;;;4.94;100.00
7170;BME280;3626;42.656;23.312;2023-04-09T00:27:40;94769.19;;;4.95;100.00
7170;BME280;3626;42.656;23.312;2023-04-09T00:27:46;94775.09;;;4.96;100.00
7170;BME280;3626;42.656;23.312;2023-04-09T00:27:52;94774.31;;;4.95;100.00
7170;BME280;3626;42.656;23.312;2023-04-09T00:27:57;94769.19;;;4.95;100.00
7170;BME280;3626;42.656;23.312;2023-04-09T00:28:04;94770.81;;;4.96;100.00
7170;BME280;3626;42.656;23.312;2023-04-09T00:28:10;94770.00;;;4.96;100.00
7170;BME280;3626;42.656;23.312;2023-04-09T00:28:16;94767.44;;;4.96;100.00
7170;BME280;3626;42.656;23.312;2023-04-09T00:28:22;94766.50;;;4.97;100.00
7170;BME280;3626;42.656;23.312;2023-04-09T00:28:27;94774.06;;;4.98;100.00
7170;BME280;3626;42.656;23.312;2023-04-09T00:28:33;94767.34;;;4.97;100.00
7170;BME280;3626;42.656;23.312;2023-04-09T00:28:40;94768.13;;;4.98;100.00
7170;BME280;3626;42.656;23.312;2023-04-09T00:28:46;94768.13;;;4.98;100.00
7170;BME280;3626;42.656;23.312;2023-04-09T00:28:52;94770.69;;;4.98;100.00
7170;BME280;3626;42.656;23.312;2023-04-09T00:28:57;94779.03;;;5.00;100.00
7170;BME280;3626;42.656;23.312;2023-04-09T00:29:03;94772.31;;;4.99;100.00
7170;BME280;3626;42.656;23.312;2023-04-09T00:29:10;94774.06;;;4.98;100.00
7170;BME280;3626;42.656;23.312;2023-04-09T00:29:16;94774.06;;;4.98;100.00
7170;BME280;3626;42.656;23.312;2023-04-09T00:29:22;94770.81;;;4.96;100.00
7170;BME280;3626;42.656;23.312;2023-04-09T00:29:27;94768.25;;;4.96;100.00
7170;BME280;3626;42.656;23.312;2023-04-09T00:29:35;94766.50;;;4.97;100.00
7170;BME280;3626;42.656;23.312;2023-04-09T00:29:41;94775.00;;;4.97;100.00
7170;BME280;3626;42.656;23.312;2023-04-09T00:29:46;94770.69;;;4.98;100.00
7170;BME280;3626;42.656;23.312;2023-04-09T00:29:52;94771.59;;;4.97;100.00
7170;BME280;3626;42.656;23.312;2023-04-09T00:29:58;94769.88;;;4.97;100.00
7170;BME280;3626;42.656;23.312;2023-04-09T00:30:05;94771.50;;;4.98;100.00
7170;BME280;3626;42.656;23.312;2023-04-09T00:30:11;94772.31;;;4.99;100.00
7170;BME280;3626;42.656;23.312;2023-04-09T00:30:17;94775.53;;;5.01;100.00
7170;BME280;3626;42.656;23.312;2023-04-09T00:30:23;94771.34;;;5.00;100.00
7170;BME280;3626;42.656;23.312;2023-04-09T00:30:29;94776.38;;;5.01;100.00
7170;BME280;3626;42.656;23.312;2023-04-09T00:30:35;94775.53;;;5.01;100.00
7170;BME280;3626;42.656;23.312;2023-04-09T00:30:41;94771.25;;;5.01;100.00
7170;BME280;3626;42.656;23.312;2023-04-09T00:30:47;94772.97;;;5.01;100.00
7170;BME280;3626;42.656;23.312;2023-04-09T00:30:52;94766.38;;;4.98;100.00
7170;BME280;3626;42.656;23.312;2023-04-09T00:30:59;94767.03;;;5.00;100.00
7170;BME280;3626;42.656;23.312;2023-04-09T00:31:05;94769.75;;;4.99;100.00
7170;BME280;3626;42.656;23.312;2023-04-09T00:31:11;94770.56;;;4.99;100.00
7170;BME280;3626;42.656;23.312;2023-04-09T00:31:17;94772.16;;;5.00;100.00
7170;BME280;3626;42.656;23.312;2023-04-09T00:31:23;94771.34;;;5.00;100.00
7170;BME280;3626;42.656;23.312;2023-04-09T00:31:29;94770.41;;;5.01;100.00
7170;BME280;3626;42.656;23.312;2023-04-09T00:31:35;94773.13;;;4.99;100.00
7170;BME280;3626;42.656;23.312;2023-04-09T00:31:43;94771.34;;;5.00;100.00
7170;BME280;3626;42.656;23.312;2023-04-09T00:31:49;94769.50;;;5.02;100.00
7170;BME280;3626;42.656;23.312;2023-04-09T00:31:54;94768.69;;;5.01;100.00
7170;BME280;3626;42.656;23.312;2023-04-09T00:32:00;94780.53;;;5.03;100.00
7170;BME280;3626;42.656;23.312;2023-04-09T00:32:06;94775.41;;;5.03;100.00
7170;BME280;3626;42.656;23.312;2023-04-09T00:32:12;94769.50;;;5.02;100.00
7170;BME280;3626;42.656;23.312;2023-04-09T00:32:18;94774.47;;;5.04;100.00
7170;BME280;3626;42.656;23.312;2023-04-09T00:32:25;94770.16;;;5.04;100.00
7170;BME280;3626;42.656;23.312;2023-04-09T00:32:31;94770.97;;;5.05;100.00
7170;BME280;3626;42.656;23.312;2023-04-09T00:32:36;94773.53;;;5.05;100.00